sensor_id;sensor_type;location;lat;lon;timestamp;temperature;humidity
7666;DHT22;3875;46.562;4.898;2023-11-19T00:01:55;10.80;91.20
7666;DHT22;3875;46.562;4.898;2023-11-19T00:04:22;10.80;91.30
7666;DHT22;3875;46.562;4.898;2023-11-19T00:06:48;10.80;91.30
7666;DHT22;3875;46.562;4.898;2023-11-19T00:09:13;10.80;91.30
7666;DHT22;3875;46.562;4.898;2023-11-19T00:11:42;10.80;91.40
7666;DHT22;3875;46.562;4.898;2023-11-19T00:14:07;10.80;91.50
7666;DHT22;3875;46.562;4.898;2023-11-19T00:16:34;10.80;91.50
7666;DHT22;3875;46.562;4.898;2023-11-19T00:19:00;10.80;91.50
7666;DHT22;3875;46.562;4.898;2023-11-19T00:21:26;10.80;91.40
7666;DHT22;3875;46.562;4.898;2023-11-19T00:23:54;10.80;91.40
7666;DHT22;3875;46.562;4.898;2023-11-19T00:26:20;10.80;91.40
7666;DHT22;3875;46.562;4.898;2023-11-19T00:28:45;10.80;91.40
7666;DHT22;3875;46.562;4.898;2023-11-19T00:31:13;10.80;91.40
7666;DHT22;3875;46.562;4.898;2023-11-19T00:33:39;10.80;91.50
7666;DHT22;3875;46.562;4.898;2023-11-19T00:36:05;10.80;91.20
7666;DHT22;3875;46.562;4.898;2023-11-19T00:38:33;10.80;91.10
7666;DHT22;3875;46.562;4.898;2023-11-19T00:40:59;10.80;91.10
7666;DHT22;3875;46.562;4.898;2023-11-19T00:43:25;10.90;91.00
7666;DHT22;3875;46.562;4.898;2023-11-19T00:45:51;10.90;91.10
7666;DHT22;3875;46.562;4.898;2023-11-19T00:48:17;10.90;91.10
7666;DHT22;3875;46.562;4.898;2023-11-19T00:50:42;10.90;91.10
7666;DHT22;3875;46.562;4.898;2023-11-19T00:53:10;10.90;91.10
7666;DHT22;3875;46.562;4.898;2023-11-19T00:55:36;10.90;91.10
7666;DHT22;3875;46.562;4.898;2023-11-19T00:58:01;10.90;91.00
7666;DHT22;3875;46.562;4.898;2023-11-19T01:00:28;11.00;90.90
7666;DHT22;3875;46.562;4.898;2023-11-19T01:02:54;10.90;90.80
7666;DHT22;3875;46.562;4.898;2023-11-19T01:05:20;10.90;90.90
7666;DHT22;3875;46.562;4.898;2023-11-19T01:07:50;10.90;90.80
7666;DHT22;3875;46.562;4.898;2023-11-19T01:10:15;10.90;90.80
7666;DHT22;3875;46.562;4.898;2023-11-19T01:12:42;10.90;90.70
7666;DHT22;3875;46.562;4.898;2023-11-19T01:15:07;10.90;90.70
7666;DHT22;3875;46.562;4.898;2023-11-19T01:17:33;10.90;90.70
7666;DHT22;3875;46.562;4.898;2023-11-19T01:19:59;10.90;90.80
7666;DHT22;3875;46.562;4.898;2023-11-19T01:22:24;10.90;90.80
7666;DHT22;3875;46.562;4.898;2023-11-19T01:24:50;10.90;90.70
7666;DHT22;3875;46.562;4.898;2023-11-19T01:27:17;10.90;90.80
7666;DHT22;3875;46.562;4.898;2023-11-19T01:29:43;10.90;90.90
7666;DHT22;3875;46.562;4.898;2023-11-19T01:32:08;10.90;90.80
7666;DHT22;3875;46.562;4.898;2023-11-19T01:34:34;10.90;90.80
7666;DHT22;3875;46.562;4.898;2023-11-19T01:37:01;10.90;90.80
7666;DHT22;3875;46.562;4.898;2023-11-19T01:39:26;10.90;90.60
7666;DHT22;3875;46.562;4.898;2023-11-19T01:41:52;10.90;90.60
7666;DHT22;3875;46.562;4.898;2023-11-19T01:44:20;10.80;90.70
7666;DHT22;3875;46.562;4.898;2023-11-19T01:46:46;10.80;90.70
7666;DHT22;3875;46.562;4.898;2023-11-19T01:49:15;10.80;90.90
7666;DHT22;3875;46.562;4.898;2023-11-19T01:51:43;10.80;91.00
7666;DHT22;3875;46.562;4.898;2023-11-19T01:54:08;10.80;91.00
7666;DHT22;3875;46.562;4.898;2023-11-19T01:56:36;10.70;91.10
7666;DHT22;3875;46.562;4.898;2023-11-19T01:59:03;10.70;91.30
7666;DHT22;3875;46.562;4.898;2023-11-19T02:01:29;10.70;91.30
7666;DHT22;3875;46.562;4.898;2023-11-19T02:03:55;10.70;91.40
7666;DHT22;3875;46.562;4.898;2023-11-19T02:06:21;10.70;91.50
7666;DHT22;3875;46.562;4.898;2023-11-19T02:08:47;10.70;91.50
7666;DHT22;3875;46.562;4.898;2023-11-19T02:11:12;10.70;91.60
7666;DHT22;3875;46.562;4.898;2023-11-19T02:13:38;10.70;91.60
7666;DHT22;3875;46.562;4.898;2023-11-19T02:16:06;10.70;91.80
7666;DHT22;3875;46.562;4.898;2023-11-19T02:18:34;10.70;91.80
7666;DHT22;3875;46.562;4.898;2023-11-19T02:20:59;10.70;91.90
7666;DHT22;3875;46.562;4.898;2023-11-19T02:23:28;10.70;91.90
7666;DHT22;3875;46.562;4.898;2023-11-19T02:26:02;10.70;92.00
7666;DHT22;3875;46.562;4.898;2023-11-19T02:28:31;10.80;92.00
7666;DHT22;3875;46.562;4.898;2023-11-19T02:30:58;10.80;91.90
7666;DHT22;3875;46.562;4.898;2023-11-19T02:33:24;10.80;91.90
7666;DHT22;3875;46.562;4.898;2023-11-19T02:35:50;10.80;92.00
7666;DHT22;3875;46.562;4.898;2023-11-19T02:38:16;10.80;92.10
7666;DHT22;3875;46.562;4.898;2023-11-19T02:40:42;10.80;92.20
7666;DHT22;3875;46.562;4.898;2023-11-19T02:43:08;10.80;92.30
7666;DHT22;3875;46.562;4.898;2023-11-19T02:45:34;10.80;92.40
7666;DHT22;3875;46.562;4.898;2023-11-19T02:47:59;10.70;92.40
7666;DHT22;3875;46.562;4.898;2023-11-19T02:50:28;10.80;92.50
7666;DHT22;3875;46.562;4.898;2023-11-19T02:52:55;10.80;92.50
7666;DHT22;3875;46.562;4.898;2023-11-19T02:55:25;10.80;92.50
7666;DHT22;3875;46.562;4.898;2023-11-19T02:57:53;10.70;92.60
7666;DHT22;3875;46.562;4.898;2023-11-19T03:00:20;10.70;92.60
7666;DHT22;3875;46.562;4.898;2023-11-19T03:02:53;10.70;92.70
7666;DHT22;3875;46.562;4.898;2023-11-19T03:05:26;10.70;92.70
7666;DHT22;3875;46.562;4.898;2023-11-19T03:07:52;10.70;92.70
7666;DHT22;3875;46.562;4.898;2023-11-19T03:10:18;10.60;92.90
7666;DHT22;3875;46.562;4.898;2023-11-19T03:12:46;10.60;93.10
7666;DHT22;3875;46.562;4.898;2023-11-19T03:15:12;10.60;93.10
7666;DHT22;3875;46.562;4.898;2023-11-19T03:17:41;10.50;93.20
7666;DHT22;3875;46.562;4.898;2023-11-19T03:20:09;10.50;93.40
7666;DHT22;3875;46.562;4.898;2023-11-19T03:22:38;10.50;93.50
7666;DHT22;3875;46.562;4.898;2023-11-19T03:25:04;10.50;93.60
7666;DHT22;3875;46.562;4.898;2023-11-19T03:27:29;10.50;93.60
7666;DHT22;3875;46.562;4.898;2023-11-19T03:29:55;10.50;93.60
7666;DHT22;3875;46.562;4.898;2023-11-19T03:32:20;10.60;93.70
7666;DHT22;3875;46.562;4.898;2023-11-19T03:34:46;10.60;93.70
7666;DHT22;3875;46.562;4.898;2023-11-19T03:37:12;10.60;93.70
7666;DHT22;3875;46.562;4.898;2023-11-19T03:39:41;10.60;93.70
7666;DHT22;3875;46.562;4.898;2023-11-19T03:42:06;10.60;93.60
7666;DHT22;3875;46.562;4.898;2023-11-19T03:44:32;10.60;93.60
7666;DHT22;3875;46.562;4.898;2023-11-19T03:46:57;10.70;93.70
7666;DHT22;3875;46.562;4.898;2023-11-19T03:49:23;10.70;93.60
7666;DHT22;3875;46.562;4.898;2023-11-19T03:51:49;10.70;93.70
7666;DHT22;3875;46.562;4.898;2023-11-19T03:54:15;10.80;93.90
7666;DHT22;3875;46.562;4.898;2023-11-19T03:56:40;10.80;93.90
7666;DHT22;3875;46.562;4.898;2023-11-19T03:59:06;10.80;93.90
7666;DHT22;3875;46.562;4.898;2023-11-19T04:01:32;10.80;94.00
7666;DHT22;3875;46.562;4.898;2023-11-19T04:03:57;10.90;94.30
7666;DHT22;3875;46.562;4.898;2023-11-19T04:06:26;10.80;94.50
7666;DHT22;3875;46.562;4.898;2023-11-19T04:08:51;10.80;94.70
7666;DHT22;3875;46.562;4.898;2023-11-19T04:11:17;10.80;94.80
7666;DHT22;3875;46.562;4.898;2023-11-19T04:13:42;10.80;95.00
7666;DHT22;3875;46.562;4.898;2023-11-19T04:16:09;10.80;95.10
7666;DHT22;3875;46.562;4.898;2023-11-19T04:18:35;10.80;95.20
7666;DHT22;3875;46.562;4.898;2023-11-19T04:21:01;10.70;95.30
7666;DHT22;3875;46.562;4.898;2023-11-19T04:23:26;10.70;95.40
7666;DHT22;3875;46.562;4.898;2023-11-19T04:25:52;10.70;95.50
7666;DHT22;3875;46.562;4.898;2023-11-19T04:28:17;10.70;95.60
7666;DHT22;3875;46.562;4.898;2023-11-19T04:30:43;10.70;95.70
7666;DHT22;3875;46.562;4.898;2023-11-19T04:33:09;10.70;95.80
7666;DHT22;3875;46.562;4.898;2023-11-19T04:35:35;10.60;95.90
7666;DHT22;3875;46.562;4.898;2023-11-19T04:38:01;10.60;96.00
7666;DHT22;3875;46.562;4.898;2023-11-19T04:40:26;10.60;96.00
7666;DHT22;3875;46.562;4.898;2023-11-19T04:42:52;10.60;96.20
7666;DHT22;3875;46.562;4.898;2023-11-19T04:45:21;10.60;96.30
7666;DHT22;3875;46.562;4.898;2023-11-19T04:47:46;10.60;96.50
7666;DHT22;3875;46.562;4.898;2023-11-19T04:50:12;10.60;96.60
7666;DHT22;3875;46.562;4.898;2023-11-19T04:52:38;10.60;96.60
7666;DHT22;3875;46.562;4.898;2023-11-19T04:55:10;10.60;96.70
7666;DHT22;3875;46.562;4.898;2023-11-19T04:57:37;10.60;96.70
7666;DHT22;3875;46.562;4.898;2023-11-19T05:00:04;10.60;96.70
7666;DHT22;3875;46.562;4.898;2023-11-19T05:02:30;10.60;96.80
7666;DHT22;3875;46.562;4.898;2023-11-19T05:04:57;10.60;96.80
7666;DHT22;3875;46.562;4.898;2023-11-19T05:07:22;10.50;96.80
7666;DHT22;3875;46.562;4.898;2023-11-19T05:09:48;10.50;96.90
7666;DHT22;3875;46.562;4.898;2023-11-19T05:12:13;10.50;97.00
7666;DHT22;3875;46.562;4.898;2023-11-19T05:14:39;10.50;97.00
7666;DHT22;3875;46.562;4.898;2023-11-19T05:17:05;10.50;97.00
7666;DHT22;3875;46.562;4.898;2023-11-19T05:19:30;10.50;97.10
7666;DHT22;3875;46.562;4.898;2023-11-19T05:21:56;10.50;97.10
7666;DHT22;3875;46.562;4.898;2023-11-19T05:24:22;10.50;97.00
7666;DHT22;3875;46.562;4.898;2023-11-19T05:26:48;10.50;97.10
7666;DHT22;3875;46.562;4.898;2023-11-19T05:29:16;10.50;97.00
7666;DHT22;3875;46.562;4.898;2023-11-19T05:31:42;10.50;97.00
7666;DHT22;3875;46.562;4.898;2023-11-19T05:34:07;10.50;97.00
7666;DHT22;3875;46.562;4.898;2023-11-19T05:36:33;10.50;97.00
7666;DHT22;3875;46.562;4.898;2023-11-19T05:38:59;10.50;96.80
7666;DHT22;3875;46.562;4.898;2023-11-19T05:41:24;10.50;96.80
7666;DHT22;3875;46.562;4.898;2023-11-19T05:43:50;10.50;96.70
7666;DHT22;3875;46.562;4.898;2023-11-19T05:46:15;10.50;96.70
7666;DHT22;3875;46.562;4.898;2023-11-19T05:48:42;10.50;96.70
7666;DHT22;3875;46.562;4.898;2023-11-19T05:51:08;10.50;96.60
7666;DHT22;3875;46.562;4.898;2023-11-19T05:53:33;10.50;96.50
7666;DHT22;3875;46.562;4.898;2023-11-19T05:55:59;10.40;96.50
7666;DHT22;3875;46.562;4.898;2023-11-19T05:58:29;10.40;96.60
7666;DHT22;3875;46.562;4.898;2023-11-19T06:00:56;10.40;96.50
7666;DHT22;3875;46.562;4.898;2023-11-19T06:03:22;10.40;96.50
7666;DHT22;3875;46.562;4.898;2023-11-19T06:05:49;10.40;96.60
7666;DHT22;3875;46.562;4.898;2023-11-19T06:08:15;10.40;96.70
7666;DHT22;3875;46.562;4.898;2023-11-19T06:10:41;10.40;96.60
7666;DHT22;3875;46.562;4.898;2023-11-19T06:13:07;10.40;96.60
7666;DHT22;3875;46.562;4.898;2023-11-19T06:15:35;10.40;96.60
7666;DHT22;3875;46.562;4.898;2023-11-19T06:18:02;10.50;96.70
7666;DHT22;3875;46.562;4.898;2023-11-19T06:20:33;10.40;96.60
7666;DHT22;3875;46.562;4.898;2023-11-19T06:22:59;10.40;96.70
7666;DHT22;3875;46.562;4.898;2023-11-19T06:25:25;10.50;96.70
7666;DHT22;3875;46.562;4.898;2023-11-19T06:27:51;10.50;96.70
7666;DHT22;3875;46.562;4.898;2023-11-19T06:30:17;10.50;96.70
7666;DHT22;3875;46.562;4.898;2023-11-19T06:32:43;10.50;96.60
7666;DHT22;3875;46.562;4.898;2023-11-19T06:35:08;10.50;96.70
7666;DHT22;3875;46.562;4.898;2023-11-19T06:37:35;10.50;96.70
7666;DHT22;3875;46.562;4.898;2023-11-19T06:40:02;10.60;96.70
7666;DHT22;3875;46.562;4.898;2023-11-19T06:42:29;10.60;96.60
7666;DHT22;3875;46.562;4.898;2023-11-19T06:44:54;10.60;96.50
7666;DHT22;3875;46.562;4.898;2023-11-19T06:47:25;10.60;96.50
7666;DHT22;3875;46.562;4.898;2023-11-19T06:49:51;10.60;96.40
7666;DHT22;3875;46.562;4.898;2023-11-19T06:52:17;10.60;96.40
7666;DHT22;3875;46.562;4.898;2023-11-19T06:54:43;10.60;96.30
7666;DHT22;3875;46.562;4.898;2023-11-19T06:57:08;10.60;96.40
7666;DHT22;3875;46.562;4.898;2023-11-19T06:59:35;10.70;96.30
7666;DHT22;3875;46.562;4.898;2023-11-19T07:02:00;10.70;96.30
7666;DHT22;3875;46.562;4.898;2023-11-19T07:04:26;10.70;96.30
7666;DHT22;3875;46.562;4.898;2023-11-19T07:06:52;10.70;96.20
7666;DHT22;3875;46.562;4.898;2023-11-19T07:09:18;10.70;96.00
7666;DHT22;3875;46.562;4.898;2023-11-19T07:11:44;10.70;96.00
7666;DHT22;3875;46.562;4.898;2023-11-19T07:14:12;10.70;95.90
7666;DHT22;3875;46.562;4.898;2023-11-19T07:16:37;10.80;95.90
7666;DHT22;3875;46.562;4.898;2023-11-19T07:19:04;10.80;95.80
7666;DHT22;3875;46.562;4.898;2023-11-19T07:21:30;10.80;95.90
7666;DHT22;3875;46.562;4.898;2023-11-19T07:23:56;10.80;95.80
7666;DHT22;3875;46.562;4.898;2023-11-19T07:26:23;10.80;95.70
7666;DHT22;3875;46.562;4.898;2023-11-19T07:28:49;10.90;95.70
7666;DHT22;3875;46.562;4.898;2023-11-19T07:31:16;10.90;95.70
7666;DHT22;3875;46.562;4.898;2023-11-19T07:33:41;10.90;95.50
7666;DHT22;3875;46.562;4.898;2023-11-19T07:36:09;10.90;95.40
7666;DHT22;3875;46.562;4.898;2023-11-19T07:38:34;10.90;95.30
7666;DHT22;3875;46.562;4.898;2023-11-19T07:41:00;11.00;95.30
7666;DHT22;3875;46.562;4.898;2023-11-19T07:43:26;11.00;95.30
7666;DHT22;3875;46.562;4.898;2023-11-19T07:45:52;11.00;95.30
7666;DHT22;3875;46.562;4.898;2023-11-19T07:48:18;11.10;95.30
7666;DHT22;3875;46.562;4.898;2023-11-19T07:50:51;11.10;95.20
7666;DHT22;3875;46.562;4.898;2023-11-19T07:53:17;11.10;95.20
7666;DHT22;3875;46.562;4.898;2023-11-19T07:55:43;11.20;95.10
7666;DHT22;3875;46.562;4.898;2023-11-19T07:58:10;11.20;95.10
7666;DHT22;3875;46.562;4.898;2023-11-19T08:00:36;11.20;94.90
7666;DHT22;3875;46.562;4.898;2023-11-19T08:03:01;11.30;95.00
7666;DHT22;3875;46.562;4.898;2023-11-19T08:05:27;11.30;94.90
7666;DHT22;3875;46.562;4.898;2023-11-19T08:07:52;11.40;94.90
7666;DHT22;3875;46.562;4.898;2023-11-19T08:10:19;11.40;94.80
7666;DHT22;3875;46.562;4.898;2023-11-19T08:12:45;11.50;94.80
7666;DHT22;3875;46.562;4.898;2023-11-19T08:15:10;11.50;94.80
7666;DHT22;3875;46.562;4.898;2023-11-19T08:17:37;11.60;94.80
7666;DHT22;3875;46.562;4.898;2023-11-19T08:20:03;11.60;94.70
7666;DHT22;3875;46.562;4.898;2023-11-19T08:22:30;11.70;94.60
7666;DHT22;3875;46.562;4.898;2023-11-19T08:24:56;11.70;94.60
7666;DHT22;3875;46.562;4.898;2023-11-19T08:27:22;11.70;94.60
7666;DHT22;3875;46.562;4.898;2023-11-19T08:29:54;11.70;94.60
7666;DHT22;3875;46.562;4.898;2023-11-19T08:32:25;11.70;94.50
7666;DHT22;3875;46.562;4.898;2023-11-19T08:34:51;11.70;94.50
7666;DHT22;3875;46.562;4.898;2023-11-19T08:37:17;11.70;94.50
7666;DHT22;3875;46.562;4.898;2023-11-19T08:39:49;11.80;94.40
7666;DHT22;3875;46.562;4.898;2023-11-19T08:42:16;11.70;94.20
7666;DHT22;3875;46.562;4.898;2023-11-19T08:44:42;11.70;94.30
7666;DHT22;3875;46.562;4.898;2023-11-19T08:47:11;11.70;94.20
7666;DHT22;3875;46.562;4.898;2023-11-19T08:49:36;11.70;94.30
7666;DHT22;3875;46.562;4.898;2023-11-19T08:52:02;11.70;94.40
7666;DHT22;3875;46.562;4.898;2023-11-19T08:54:27;11.70;94.40
7666;DHT22;3875;46.562;4.898;2023-11-19T08:56:53;11.70;94.60
7666;DHT22;3875;46.562;4.898;2023-11-19T08:59:19;11.70;94.50
7666;DHT22;3875;46.562;4.898;2023-11-19T09:01:44;11.70;94.70
7666;DHT22;3875;46.562;4.898;2023-11-19T09:04:11;11.70;94.70
7666;DHT22;3875;46.562;4.898;2023-11-19T09:06:36;11.70;94.90
7666;DHT22;3875;46.562;4.898;2023-11-19T09:09:02;11.70;95.00
7666;DHT22;3875;46.562;4.898;2023-11-19T09:11:29;11.70;95.00
7666;DHT22;3875;46.562;4.898;2023-11-19T09:13:55;11.70;95.00
7666;DHT22;3875;46.562;4.898;2023-11-19T09:16:21;11.80;95.00
7666;DHT22;3875;46.562;4.898;2023-11-19T09:18:47;11.80;95.20
7666;DHT22;3875;46.562;4.898;2023-11-19T09:21:13;11.70;95.20
7666;DHT22;3875;46.562;4.898;2023-11-19T09:23:39;11.70;95.50
7666;DHT22;3875;46.562;4.898;2023-11-19T09:26:06;11.70;95.70
7666;DHT22;3875;46.562;4.898;2023-11-19T09:28:33;11.70;95.90
7666;DHT22;3875;46.562;4.898;2023-11-19T09:30:59;11.70;96.10
7666;DHT22;3875;46.562;4.898;2023-11-19T09:33:24;11.70;96.40
7666;DHT22;3875;46.562;4.898;2023-11-19T09:35:50;11.70;96.60
7666;DHT22;3875;46.562;4.898;2023-11-19T09:38:16;11.70;96.80
7666;DHT22;3875;46.562;4.898;2023-11-19T09:40:42;11.80;96.90
7666;DHT22;3875;46.562;4.898;2023-11-19T09:43:08;11.80;96.70
7666;DHT22;3875;46.562;4.898;2023-11-19T09:45:48;11.90;96.90
7666;DHT22;3875;46.562;4.898;2023-11-19T09:48:17;11.90;97.00
7666;DHT22;3875;46.562;4.898;2023-11-19T09:50:45;12.00;97.00
7666;DHT22;3875;46.562;4.898;2023-11-19T09:53:12;12.00;97.10
7666;DHT22;3875;46.562;4.898;2023-11-19T09:55:38;12.00;97.30
7666;DHT22;3875;46.562;4.898;2023-11-19T09:58:03;12.00;97.30
7666;DHT22;3875;46.562;4.898;2023-11-19T10:00:31;12.00;97.20
7666;DHT22;3875;46.562;4.898;2023-11-19T10:02:57;12.10;97.40
7666;DHT22;3875;46.562;4.898;2023-11-19T10:05:24;12.10;97.30
7666;DHT22;3875;46.562;4.898;2023-11-19T10:07:50;12.10;97.50
7666;DHT22;3875;46.562;4.898;2023-11-19T10:10:15;12.10;97.60
7666;DHT22;3875;46.562;4.898;2023-11-19T10:12:45;12.20;97.70
7666;DHT22;3875;46.562;4.898;2023-11-19T10:15:21;12.30;97.70
7666;DHT22;3875;46.562;4.898;2023-11-19T10:17:47;12.30;97.70
7666;DHT22;3875;46.562;4.898;2023-11-19T10:20:13;12.30;97.70
7666;DHT22;3875;46.562;4.898;2023-11-19T10:22:39;12.40;97.70
7666;DHT22;3875;46.562;4.898;2023-11-19T10:25:21;12.40;97.70
7666;DHT22;3875;46.562;4.898;2023-11-19T10:27:48;12.40;97.70
7666;DHT22;3875;46.562;4.898;2023-11-19T10:30:20;12.40;97.90
7666;DHT22;3875;46.562;4.898;2023-11-19T10:32:46;12.40;98.10
7666;DHT22;3875;46.562;4.898;2023-11-19T10:35:27;12.50;98.10
7666;DHT22;3875;46.562;4.898;2023-11-19T10:37:53;12.40;98.20
7666;DHT22;3875;46.562;4.898;2023-11-19T10:40:18;12.50;98.50
7666;DHT22;3875;46.562;4.898;2023-11-19T10:42:44;12.50;98.60
7666;DHT22;3875;46.562;4.898;2023-11-19T10:45:22;12.60;98.60
7666;DHT22;3875;46.562;4.898;2023-11-19T10:47:51;12.60;98.60
7666;DHT22;3875;46.562;4.898;2023-11-19T10:50:17;12.60;98.60
7666;DHT22;3875;46.562;4.898;2023-11-19T10:52:44;12.60;98.60
7666;DHT22;3875;46.562;4.898;2023-11-19T10:55:15;12.60;98.60
7666;DHT22;3875;46.562;4.898;2023-11-19T10:57:46;12.60;98.60
7666;DHT22;3875;46.562;4.898;2023-11-19T11:00:13;12.70;98.60
7666;DHT22;3875;46.562;4.898;2023-11-19T11:02:45;12.90;98.60
7666;DHT22;3875;46.562;4.898;2023-11-19T11:05:14;13.00;98.60
7666;DHT22;3875;46.562;4.898;2023-11-19T11:07:40;13.00;98.60
7666;DHT22;3875;46.562;4.898;2023-11-19T11:10:09;13.10;98.60
7666;DHT22;3875;46.562;4.898;2023-11-19T11:12:37;13.10;98.60
7666;DHT22;3875;46.562;4.898;2023-11-19T11:15:08;13.10;98.60
7666;DHT22;3875;46.562;4.898;2023-11-19T11:17:39;13.10;98.60
7666;DHT22;3875;46.562;4.898;2023-11-19T11:20:05;13.10;98.50
7666;DHT22;3875;46.562;4.898;2023-11-19T11:22:48;13.10;98.50
7666;DHT22;3875;46.562;4.898;2023-11-19T11:35:01;13.30;98.60
7666;DHT22;3875;46.562;4.898;2023-11-19T11:39:35;13.30;98.60
7666;DHT22;3875;46.562;4.898;2023-11-19T11:42:34;13.30;98.40
7666;DHT22;3875;46.562;4.898;2023-11-19T11:45:02;13.20;98.30
7666;DHT22;3875;46.562;4.898;2023-11-19T11:50:15;13.00;98.60
7666;DHT22;3875;46.562;4.898;2023-11-19T11:58:25;13.00;98.60
7666;DHT22;3875;46.562;4.898;2023-11-19T12:00:51;13.00;98.60
7666;DHT22;3875;46.562;4.898;2023-11-19T12:03:20;13.00;98.60
7666;DHT22;3875;46.562;4.898;2023-11-19T12:05:49;13.00;98.60
7666;DHT22;3875;46.562;4.898;2023-11-19T12:08:19;13.00;98.60
7666;DHT22;3875;46.562;4.898;2023-11-19T12:10:53;13.10;98.60
7666;DHT22;3875;46.562;4.898;2023-11-19T12:13:21;13.20;98.60
7666;DHT22;3875;46.562;4.898;2023-11-19T12:16:09;13.20;98.60
7666;DHT22;3875;46.562;4.898;2023-11-19T12:18:36;13.30;98.60
7666;DHT22;3875;46.562;4.898;2023-11-19T12:21:03;13.40;98.60
7666;DHT22;3875;46.562;4.898;2023-11-19T12:23:31;13.40;98.60
7666;DHT22;3875;46.562;4.898;2023-11-19T12:25:58;13.50;98.60
7666;DHT22;3875;46.562;4.898;2023-11-19T12:28:24;13.50;98.60
7666;DHT22;3875;46.562;4.898;2023-11-19T12:30:52;13.50;98.60
7666;DHT22;3875;46.562;4.898;2023-11-19T12:33:19;13.50;98.60
7666;DHT22;3875;46.562;4.898;2023-11-19T12:35:46;13.60;98.60
7666;DHT22;3875;46.562;4.898;2023-11-19T12:38:22;13.60;98.60
7666;DHT22;3875;46.562;4.898;2023-11-19T12:41:09;13.60;98.60
7666;DHT22;3875;46.562;4.898;2023-11-19T12:43:39;13.70;98.60
7666;DHT22;3875;46.562;4.898;2023-11-19T12:46:21;13.70;98.60
7666;DHT22;3875;46.562;4.898;2023-11-19T12:48:48;13.60;98.60
7666;DHT22;3875;46.562;4.898;2023-11-19T12:51:14;13.60;98.60
7666;DHT22;3875;46.562;4.898;2023-11-19T12:53:50;13.50;98.60
7666;DHT22;3875;46.562;4.898;2023-11-19T12:56:20;13.50;98.60
7666;DHT22;3875;46.562;4.898;2023-11-19T12:58:46;13.50;98.60
7666;DHT22;3875;46.562;4.898;2023-11-19T13:01:19;13.50;98.60
7666;DHT22;3875;46.562;4.898;2023-11-19T13:03:46;13.50;98.60
7666;DHT22;3875;46.562;4.898;2023-11-19T13:06:13;13.50;98.60
7666;DHT22;3875;46.562;4.898;2023-11-19T13:08:45;13.50;98.60
7666;DHT22;3875;46.562;4.898;2023-11-19T13:11:13;13.40;98.60
7666;DHT22;3875;46.562;4.898;2023-11-19T13:13:58;13.50;98.60
7666;DHT22;3875;46.562;4.898;2023-11-19T13:16:29;13.50;98.60
7666;DHT22;3875;46.562;4.898;2023-11-19T13:18:58;13.40;98.60
7666;DHT22;3875;46.562;4.898;2023-11-19T13:21:25;13.40;98.60
7666;DHT22;3875;46.562;4.898;2023-11-19T13:23:51;13.40;98.60
7666;DHT22;3875;46.562;4.898;2023-11-19T13:26:16;13.50;98.60
7666;DHT22;3875;46.562;4.898;2023-11-19T13:28:42;13.50;98.60
7666;DHT22;3875;46.562;4.898;2023-11-19T13:31:08;13.50;98.60
7666;DHT22;3875;46.562;4.898;2023-11-19T13:33:33;13.50;98.60
7666;DHT22;3875;46.562;4.898;2023-11-19T13:35:59;13.50;98.60
7666;DHT22;3875;46.562;4.898;2023-11-19T13:38:33;13.40;98.60
7666;DHT22;3875;46.562;4.898;2023-11-19T13:41:03;13.40;98.60
7666;DHT22;3875;46.562;4.898;2023-11-19T13:43:34;13.50;98.60
7666;DHT22;3875;46.562;4.898;2023-11-19T13:46:00;13.50;98.60
7666;DHT22;3875;46.562;4.898;2023-11-19T13:48:25;13.50;98.60
7666;DHT22;3875;46.562;4.898;2023-11-19T13:50:52;13.50;98.60
7666;DHT22;3875;46.562;4.898;2023-11-19T13:53:18;13.60;98.60
7666;DHT22;3875;46.562;4.898;2023-11-19T13:55:44;13.50;98.60
7666;DHT22;3875;46.562;4.898;2023-11-19T13:58:10;13.50;98.60
7666;DHT22;3875;46.562;4.898;2023-11-19T14:00:36;13.50;98.60
7666;DHT22;3875;46.562;4.898;2023-11-19T14:03:02;13.50;98.60
7666;DHT22;3875;46.562;4.898;2023-11-19T14:05:28;13.50;98.60
7666;DHT22;3875;46.562;4.898;2023-11-19T14:07:54;13.50;98.60
7666;DHT22;3875;46.562;4.898;2023-11-19T14:10:22;13.60;98.60
7666;DHT22;3875;46.562;4.898;2023-11-19T14:12:48;13.50;98.60
7666;DHT22;3875;46.562;4.898;2023-11-19T14:15:15;13.60;98.60
7666;DHT22;3875;46.562;4.898;2023-11-19T14:17:43;13.60;98.60
7666;DHT22;3875;46.562;4.898;2023-11-19T14:20:09;13.70;98.60
7666;DHT22;3875;46.562;4.898;2023-11-19T14:22:41;13.70;98.60
7666;DHT22;3875;46.562;4.898;2023-11-19T14:25:08;13.70;98.60
7666;DHT22;3875;46.562;4.898;2023-11-19T14:27:39;13.80;98.60
7666;DHT22;3875;46.562;4.898;2023-11-19T14:30:06;13.90;98.60
7666;DHT22;3875;46.562;4.898;2023-11-19T14:32:32;13.90;98.60
7666;DHT22;3875;46.562;4.898;2023-11-19T14:34:58;13.90;98.60
7666;DHT22;3875;46.562;4.898;2023-11-19T14:37:24;13.80;98.60
7666;DHT22;3875;46.562;4.898;2023-11-19T14:39:49;13.80;98.60
7666;DHT22;3875;46.562;4.898;2023-11-19T14:42:16;13.80;98.60
7666;DHT22;3875;46.562;4.898;2023-11-19T14:44:42;13.80;98.60
7666;DHT22;3875;46.562;4.898;2023-11-19T14:47:07;13.90;98.60
7666;DHT22;3875;46.562;4.898;2023-11-19T14:49:35;13.90;98.60
7666;DHT22;3875;46.562;4.898;2023-11-19T14:52:03;14.00;98.60
7666;DHT22;3875;46.562;4.898;2023-11-19T14:54:28;14.00;98.60
7666;DHT22;3875;46.562;4.898;2023-11-19T14:56:54;14.00;98.60
7666;DHT22;3875;46.562;4.898;2023-11-19T14:59:20;14.10;98.60
7666;DHT22;3875;46.562;4.898;2023-11-19T15:01:45;14.10;98.60
7666;DHT22;3875;46.562;4.898;2023-11-19T15:04:11;14.00;98.60
7666;DHT22;3875;46.562;4.898;2023-11-19T15:06:37;14.00;98.60
7666;DHT22;3875;46.562;4.898;2023-11-19T15:09:03;13.90;98.60
7666;DHT22;3875;46.562;4.898;2023-11-19T15:11:29;13.90;98.60
7666;DHT22;3875;46.562;4.898;2023-11-19T15:13:55;13.80;98.60
7666;DHT22;3875;46.562;4.898;2023-11-19T15:16:21;13.80;98.60
7666;DHT22;3875;46.562;4.898;2023-11-19T15:18:57;13.80;98.60
7666;DHT22;3875;46.562;4.898;2023-11-19T15:21:25;13.80;98.60
7666;DHT22;3875;46.562;4.898;2023-11-19T15:23:51;13.70;98.60
7666;DHT22;3875;46.562;4.898;2023-11-19T15:26:17;13.70;98.60
7666;DHT22;3875;46.562;4.898;2023-11-19T15:28:43;13.70;98.60
7666;DHT22;3875;46.562;4.898;2023-11-19T15:31:08;13.70;98.60
7666;DHT22;3875;46.562;4.898;2023-11-19T15:33:35;13.60;98.60
7666;DHT22;3875;46.562;4.898;2023-11-19T15:36:01;13.60;98.60
7666;DHT22;3875;46.562;4.898;2023-11-19T15:38:28;13.60;98.60
7666;DHT22;3875;46.562;4.898;2023-11-19T15:40:55;13.50;98.60
7666;DHT22;3875;46.562;4.898;2023-11-19T15:43:20;13.50;98.60
7666;DHT22;3875;46.562;4.898;2023-11-19T15:45:46;13.40;98.60
7666;DHT22;3875;46.562;4.898;2023-11-19T15:48:11;13.40;98.60
7666;DHT22;3875;46.562;4.898;2023-11-19T15:50:39;13.40;98.60
7666;DHT22;3875;46.562;4.898;2023-11-19T15:53:04;13.30;98.60
7666;DHT22;3875;46.562;4.898;2023-11-19T15:55:30;13.30;98.60
7666;DHT22;3875;46.562;4.898;2023-11-19T15:57:56;13.20;98.60
7666;DHT22;3875;46.562;4.898;2023-11-19T16:00:22;13.20;98.60
7666;DHT22;3875;46.562;4.898;2023-11-19T16:02:49;13.20;98.60
7666;DHT22;3875;46.562;4.898;2023-11-19T16:05:15;13.20;98.60
7666;DHT22;3875;46.562;4.898;2023-11-19T16:07:41;13.10;98.60
7666;DHT22;3875;46.562;4.898;2023-11-19T16:10:07;13.10;98.60
7666;DHT22;3875;46.562;4.898;2023-11-19T16:12:35;13.10;98.60
7666;DHT22;3875;46.562;4.898;2023-11-19T16:15:01;13.10;98.60
7666;DHT22;3875;46.562;4.898;2023-11-19T16:17:26;13.20;98.60
7666;DHT22;3875;46.562;4.898;2023-11-19T16:19:55;13.20;98.60
7666;DHT22;3875;46.562;4.898;2023-11-19T16:22:20;13.20;98.60